Time;durP1;ratioP1;P1;durP2;ratioP2;P2;SDS_P1;SDS_P2;PMS_P1;PMS_P2;Temp;Humidity;BMP_temperature;BMP_pressure;BME280_temperature;BME280_humidity;BME280_pressure;Samples;Min_cycle;Max_cycle;Signal;HPM_P1;HPM_P2
2021/07/08 00:00:36;;;;;;;11.10;10.40;;;17.20;99.90;;;;;;4946251;29;20684;-82
2021/07/08 00:03:05;;;;;;;11.60;10.80;;;17.30;99.90;;;;;;4941114;29;20327;-83
2021/07/08 00:05:36;;;;;;;11.20;10.50;;;17.30;99.90;;;;;;4947970;29;20697;-82
2021/07/08 00:08:03;;;;;;;11.40;10.70;;;17.30;99.90;;;;;;4941776;29;20229;-82
2021/07/08 00:10:32;;;;;;;11.97;11.13;;;17.30;99.90;;;;;;4945800;29;20207;-82
2021/07/08 00:13:00;;;;;;;11.80;11.10;;;17.40;99.90;;;;;;4937431;29;20199;-82
2021/07/08 00:15:29;;;;;;;12.47;11.17;;;17.30;99.90;;;;;;4945921;29;20216;-82
2021/07/08 00:17:56;;;;;;;11.60;10.90;;;17.40;99.90;;;;;;4948020;29;20278;-82
2021/07/08 00:20:25;;;;;;;12.57;11.57;;;17.40;99.90;;;;;;4945244;29;20453;-82
2021/07/08 00:22:53;;;;;;;12.23;11.43;;;17.40;99.90;;;;;;4947799;29;20297;-83
2021/07/08 00:25:23;;;;;;;12.70;11.70;;;17.40;99.90;;;;;;4947111;29;20623;-82
2021/07/08 00:27:50;;;;;;;12.43;11.50;;;17.30;99.90;;;;;;4939422;29;20210;-82
2021/07/08 00:30:18;;;;;;;12.77;11.77;;;17.40;99.90;;;;;;4941650;29;20251;-82
2021/07/08 00:32:45;;;;;;;12.10;11.30;;;17.30;99.90;;;;;;4947319;29;20195;-82
2021/07/08 00:35:13;;;;;;;12.37;11.47;;;17.30;99.90;;;;;;4944957;29;20700;-82
2021/07/08 00:37:41;;;;;;;12.30;11.50;;;17.20;99.90;;;;;;4946367;29;20202;-82
2021/07/08 00:40:11;;;;;;;12.20;11.40;;;17.20;99.90;;;;;;4946314;28;20676;-82
2021/07/08 00:42:38;;;;;;;13.00;12.10;;;17.20;99.90;;;;;;4945149;29;20192;-82
2021/07/08 00:45:07;;;;;;;13.30;12.40;;;17.20;99.90;;;;;;4942628;29;20290;-82
2021/07/08 00:47:34;;;;;;;13.27;12.37;;;17.20;99.90;;;;;;4940426;28;20209;-82
2021/07/08 00:50:01;;;;;;;13.60;12.60;;;17.20;99.90;;;;;;4947323;29;20205;-82
2021/07/08 00:52:28;;;;;;;13.67;12.77;;;17.20;99.90;;;;;;4943252;29;20246;-82
2021/07/08 00:54:54;;;;;;;13.90;12.90;;;17.10;99.90;;;;;;4945160;29;20212;-82
2021/07/08 00:57:23;;;;;;;13.43;12.53;;;17.10;99.90;;;;;;4941903;29;20201;-82
2021/07/08 00:59:52;;;;;;;13.20;12.30;;;17.10;99.90;;;;;;4946714;29;20199;-82
2021/07/08 01:02:20;;;;;;;13.10;12.30;;;17.10;99.90;;;;;;4947110;28;20205;-82
2021/07/08 01:04:48;;;;;;;13.67;12.77;;;17.10;99.90;;;;;;4945194;29;20242;-82
2021/07/08 01:07:17;;;;;;;14.20;13.10;;;17.10;99.90;;;;;;4948191;28;20205;-82
2021/07/08 01:09:43;;;;;;;13.13;12.23;;;17.10;99.90;;;;;;4941891;29;20262;-82
2021/07/08 01:12:10;;;;;;;13.80;12.90;;;17.00;99.90;;;;;;4946601;28;20205;-82
2021/07/08 01:14:39;;;;;;;13.63;12.73;;;17.00;99.90;;;;;;4945685;29;20554;-82
2021/07/08 01:17:06;;;;;;;14.40;13.40;;;16.90;99.90;;;;;;4938378;29;20194;-83
2021/07/08 01:19:34;;;;;;;14.33;13.20;;;16.90;99.90;;;;;;4943871;29;20221;-82
2021/07/08 01:22:04;;;;;;;14.03;13.03;;;16.90;99.90;;;;;;4939816;29;20196;-82
2021/07/08 01:24:32;;;;;;;13.03;12.23;;;16.90;99.90;;;;;;4946642;29;20230;-82
2021/07/08 01:26:59;;;;;;;13.00;12.20;;;16.90;99.90;;;;;;4933240;29;20194;-82
2021/07/08 01:29:26;;;;;;;13.27;12.47;;;16.90;99.90;;;;;;4941031;28;20214;-82
2021/07/08 01:31:53;;;;;;;13.13;12.13;;;16.90;99.90;;;;;;4945691;29;20206;-82
2021/07/08 01:34:20;;;;;;;13.70;12.80;;;16.90;99.90;;;;;;4943328;29;20203;-82
2021/07/08 01:36:48;;;;;;;12.73;11.93;;;16.80;99.90;;;;;;4946704;29;20286;-86
2021/07/08 01:39:17;;;;;;;13.83;12.67;;;16.80;99.90;;;;;;4945003;29;20254;-82
2021/07/08 01:41:44;;;;;;;13.50;12.60;;;16.80;99.90;;;;;;4947132;29;20228;-82
2021/07/08 01:44:11;;;;;;;13.90;13.00;;;16.90;99.90;;;;;;4943992;29;20229;-82
2021/07/08 01:46:39;;;;;;;15.00;14.00;;;16.90;99.90;;;;;;4940705;29;20539;-82
2021/07/08 01:49:06;;;;;;;14.50;13.50;;;16.90;99.90;;;;;;4943386;29;20617;-82
2021/07/08 01:51:35;;;;;;;14.00;13.20;;;16.80;99.90;;;;;;4935115;29;20696;-82
2021/07/08 01:54:04;;;;;;;14.60;13.70;;;16.90;99.90;;;;;;4943057;29;20604;-82
2021/07/08 01:56:33;;;;;;;14.20;13.40;;;16.90;99.90;;;;;;4944641;29;20219;-83
2021/07/08 01:59:00;;;;;;;14.10;13.20;;;16.90;99.90;;;;;;4940374;29;20195;-82
2021/07/08 02:01:26;;;;;;;14.47;13.57;;;16.90;99.90;;;;;;4945342;29;20196;-82
2021/07/08 02:03:54;;;;;;;14.80;13.70;;;16.90;99.90;;;;;;4938992;28;20206;-83
2021/07/08 02:06:21;;;;;;;14.00;13.10;;;16.90;99.90;;;;;;4939622;28;20219;-82
2021/07/08 02:08:49;;;;;;;14.87;13.97;;;16.90;99.90;;;;;;4944861;29;20204;-82
2021/07/08 02:11:16;;;;;;;15.40;14.50;;;16.90;99.90;;;;;;4943346;29;20228;-82
2021/07/08 02:13:44;;;;;;;14.63;13.63;;;16.90;99.90;;;;;;4942409;29;20202;-82
2021/07/08 02:16:12;;;;;;;14.50;13.60;;;16.80;99.90;;;;;;4943576;29;20300;-82
2021/07/08 02:18:40;;;;;;;14.70;13.73;;;16.80;99.90;;;;;;4946451;29;20203;-82
2021/07/08 02:21:07;;;;;;;14.70;13.70;;;16.80;99.90;;;;;;4941671;29;20198;-82
2021/07/08 02:23:36;;;;;;;15.00;14.00;;;16.80;99.90;;;;;;4939009;29;20251;-82
2021/07/08 02:26:03;;;;;;;14.60;13.70;;;16.80;99.90;;;;;;4943104;28;20208;-83
2021/07/08 02:28:31;;;;;;;14.73;13.73;;;16.80;99.90;;;;;;4937445;29;20286;-82
2021/07/08 02:30:59;;;;;;;15.60;14.60;;;16.80;99.90;;;;;;4938388;29;20192;-82
2021/07/08 02:33:26;;;;;;;14.50;13.60;;;16.80;99.90;;;;;;4945309;29;20204;-79
2021/07/08 02:35:54;;;;;;;14.40;13.40;;;16.80;99.90;;;;;;4954507;28;20596;-79
2021/07/08 02:38:21;;;;;;;14.30;13.40;;;16.80;99.90;;;;;;4954399;28;20661;-79
2021/07/08 02:40:49;;;;;;;13.80;12.90;;;16.80;99.90;;;;;;4946457;29;20204;-78
2021/07/08 02:43:18;;;;;;;13.80;13.00;;;16.70;99.90;;;;;;4952079;28;20719;-77
2021/07/08 02:46:16;;;;;;;14.27;13.37;;;16.70;99.90;;;;;;4952755;29;20208;-77
2021/07/08 02:48:47;;;;;;;13.57;12.67;;;16.70;99.90;;;;;;4950750;29;20264;-77
2021/07/08 02:51:14;;;;;;;13.53;12.73;;;16.70;99.90;;;;;;4932513;29;20601;-78
2021/07/08 02:53:44;;;;;;;14.03;13.23;;;16.70;99.90;;;;;;4935207;29;20253;-78
2021/07/08 02:56:11;;;;;;;14.73;13.80;;;16.70;99.90;;;;;;4935640;29;20218;-76
2021/07/08 02:58:38;;;;;;;14.87;13.97;;;16.70;99.90;;;;;;4934270;29;20215;-76
2021/07/08 03:01:05;;;;;;;14.43;13.50;;;16.70;99.90;;;;;;4934976;29;20266;-77
2021/07/08 03:03:35;;;;;;;13.67;12.87;;;16.70;99.90;;;;;;4935318;29;20208;-78
2021/07/08 03:06:03;;;;;;;13.90;13.10;;;16.70;99.90;;;;;;4940713;29;20217;-77
2021/07/08 03:08:30;;;;;;;13.60;12.80;;;16.70;99.90;;;;;;4942138;29;20212;-78
2021/07/08 03:10:58;;;;;;;14.10;13.30;;;16.60;99.90;;;;;;4935465;29;20588;-79
2021/07/08 03:13:25;;;;;;;13.60;12.70;;;16.70;99.90;;;;;;4942070;29;20719;-79
2021/07/08 03:15:54;;;;;;;14.33;13.47;;;16.60;99.90;;;;;;4936578;29;20230;-78
2021/07/08 03:18:21;;;;;;;15.00;13.93;;;16.70;99.90;;;;;;4941862;29;20198;-79
2021/07/08 03:20:57;;;;;;;14.63;13.73;;;16.70;99.90;;;;;;4942694;29;20195;-79
2021/07/08 03:23:25;;;;;;;5.80;5.30;;;16.60;99.90;;;;;;4941373;29;20219;-77
2021/07/08 03:25:52;;;;;;;15.07;13.87;;;16.60;99.90;;;;;;4940031;29;20224;-82
2021/07/08 03:28:19;;;;;;;15.87;14.57;;;16.60;99.90;;;;;;4940489;29;20213;-82
2021/07/08 03:30:46;;;;;;;14.20;13.20;;;16.60;99.90;;;;;;4942597;29;20634;-82
2021/07/08 03:33:13;;;;;;;16.50;15.30;;;16.60;99.90;;;;;;4940080;29;20218;-81
2021/07/08 03:35:40;;;;;;;16.00;14.90;;;16.60;99.90;;;;;;4936688;29;20227;-81
2021/07/08 03:38:07;;;;;;;16.23;15.23;;;16.60;99.90;;;;;;4941586;28;20197;-82
2021/07/08 03:40:37;;;;;;;12.97;12.17;;;16.60;99.90;;;;;;4942950;29;20189;-82
2021/07/08 03:43:04;;;;;;;15.97;14.87;;;16.60;99.90;;;;;;4943953;29;20186;-82
2021/07/08 03:45:31;;;;;;;13.93;13.03;;;16.60;99.90;;;;;;4940998;29;20211;-82
2021/07/08 03:47:58;;;;;;;17.33;16.13;;;16.60;99.90;;;;;;4938838;29;20205;-82
2021/07/08 03:50:25;;;;;;;13.10;12.20;;;16.60;99.90;;;;;;4943304;29;20630;-82
2021/07/08 03:52:52;;;;;;;16.53;15.53;;;16.60;99.90;;;;;;4940705;28;20223;-81
2021/07/08 03:55:22;;;;;;;16.10;14.80;;;16.60;99.90;;;;;;4944080;28;20216;-82
2021/07/08 03:57:53;;;;;;;16.60;15.33;;;16.60;99.90;;;;;;4946895;29;20654;-82
2021/07/08 04:00:23;;;;;;;14.27;13.37;;;16.60;99.90;;;;;;4941728;29;20195;-83
2021/07/08 04:03:02;;;;;;;14.27;13.17;;;16.60;99.90;;;;;;4947802;29;20213;-83
2021/07/08 04:05:29;;;;;;;18.13;17.03;;;16.60;99.90;;;;;;4941089;29;20228;-81
2021/07/08 04:07:56;;;;;;;16.30;15.13;;;16.60;99.90;;;;;;4946193;29;20206;-82
2021/07/08 04:10:23;;;;;;;16.03;14.93;;;16.60;99.90;;;;;;4946414;29;20199;-81
2021/07/08 04:12:51;;;;;;;18.57;17.37;;;16.60;99.90;;;;;;4937391;29;20223;-82
2021/07/08 04:15:18;;;;;;;16.17;15.10;;;16.60;99.90;;;;;;4946541;29;20223;-81
2021/07/08 04:17:45;;;;;;;16.37;15.27;;;16.60;99.90;;;;;;4944495;28;20195;-82
2021/07/08 04:20:14;;;;;;;16.23;15.20;;;16.60;99.90;;;;;;4942861;29;20195;-81
2021/07/08 04:22:41;;;;;;;15.93;15.03;;;16.60;99.90;;;;;;4945753;29;20192;-82
2021/07/08 04:25:10;;;;;;;18.30;17.20;;;16.60;99.90;;;;;;4945052;29;20828;-82
2021/07/08 04:27:37;;;;;;;17.87;16.73;;;16.70;99.90;;;;;;4946371;29;20197;-83
2021/07/08 04:30:08;;;;;;;16.60;15.60;;;16.80;99.90;;;;;;4941737;29;20195;-82
2021/07/08 04:32:35;;;;;;;16.53;15.33;;;16.90;99.90;;;;;;4946702;29;20227;-82
2021/07/08 04:35:02;;;;;;;14.97;13.97;;;16.90;99.90;;;;;;4944116;29;20213;-82
2021/07/08 04:37:29;;;;;;;11.30;10.40;;;17.10;99.90;;;;;;4943461;28;20191;-82
2021/07/08 04:39:56;;;;;;;11.77;10.97;;;17.10;99.90;;;;;;4945233;29;20688;-82
2021/07/08 04:42:23;;;;;;;9.77;9.17;;;17.20;99.90;;;;;;4944507;29;20221;-82
2021/07/08 04:44:50;;;;;;;12.70;11.80;;;17.30;99.90;;;;;;4946218;29;20231;-82
2021/07/08 04:47:18;;;;;;;9.63;9.03;;;17.30;99.90;;;;;;4946337;29;20195;-82
2021/07/08 04:49:45;;;;;;;9.90;8.93;;;17.20;99.90;;;;;;4944011;28;20203;-82
2021/07/08 04:52:12;;;;;;;15.30;14.40;;;17.20;99.90;;;;;;4945093;28;20221;-81
2021/07/08 04:54:39;;;;;;;13.90;12.90;;;17.10;99.90;;;;;;4950762;29;20214;-82
2021/07/08 04:57:06;;;;;;;13.73;12.83;;;17.10;99.90;;;;;;4943572;29;20196;-82
2021/07/08 04:59:33;;;;;;;11.93;11.23;;;17.20;99.90;;;;;;4950438;29;20212;-81
2021/07/08 05:02:00;;;;;;;11.83;11.10;;;17.10;99.90;;;;;;4945455;28;20223;-82
2021/07/08 05:04:28;;;;;;;9.90;9.20;;;17.10;99.90;;;;;;4946658;28;20199;-81
2021/07/08 05:06:55;;;;;;;9.67;8.97;;;17.20;99.90;;;;;;4941782;29;20221;-82
2021/07/08 05:09:21;;;;;;;12.20;11.40;;;17.20;99.90;;;;;;4942605;29;20208;-82
2021/07/08 05:11:48;;;;;;;12.93;12.13;;;17.20;99.90;;;;;;4945283;29;20265;-82
2021/07/08 05:14:15;;;;;;;11.30;10.50;;;17.30;99.90;;;;;;4944538;29;20579;-81
2021/07/08 05:16:42;;;;;;;10.87;10.17;;;17.30;99.90;;;;;;4944781;29;20202;-82
2021/07/08 05:19:09;;;;;;;11.30;10.50;;;17.40;99.90;;;;;;4943056;29;20691;-81
2021/07/08 05:21:42;;;;;;;11.53;10.73;;;17.40;99.90;;;;;;4946580;29;20212;-82
2021/07/08 05:24:09;;;;;;;13.80;12.90;;;17.40;99.90;;;;;;4943024;29;20276;-81
2021/07/08 05:26:36;;;;;;;12.40;11.60;;;17.40;99.90;;;;;;4940556;29;20199;-83
2021/07/08 05:29:03;;;;;;;11.63;10.83;;;17.40;99.90;;;;;;4944215;28;20201;-82
2021/07/08 05:31:30;;;;;;;11.83;11.13;;;17.50;99.90;;;;;;4944249;29;20201;-82
2021/07/08 05:33:57;;;;;;;11.60;10.80;;;17.40;99.90;;;;;;4935463;29;20631;-82
2021/07/08 05:36:24;;;;;;;11.17;10.37;;;17.40;99.90;;;;;;4942792;29;20229;-82
2021/07/08 05:38:52;;;;;;;10.27;9.37;;;17.40;99.90;;;;;;4945744;29;20207;-81
2021/07/08 05:41:19;;;;;;;13.83;12.93;;;17.40;99.90;;;;;;4938738;29;20617;-82
2021/07/08 05:43:45;;;;;;;14.23;13.23;;;17.40;99.90;;;;;;4946280;29;20213;-82
2021/07/08 05:46:12;;;;;;;11.50;10.70;;;17.40;99.90;;;;;;4943023;28;20211;-82
2021/07/08 05:48:39;;;;;;;13.37;12.47;;;17.40;99.90;;;;;;4944705;29;20189;-82
2021/07/08 05:51:06;;;;;;;14.27;13.37;;;17.40;99.90;;;;;;4944993;29;20201;-82
2021/07/08 05:53:33;;;;;;;13.30;12.40;;;17.50;99.90;;;;;;4945090;29;20222;-81
2021/07/08 05:56:01;;;;;;;10.83;9.93;;;17.50;99.90;;;;;;4946963;28;20212;-82
2021/07/08 05:58:28;;;;;;;9.50;8.70;;;17.50;99.90;;;;;;4946292;29;20690;-81
2021/07/08 06:00:54;;;;;;;9.10;8.40;;;17.50;99.90;;;;;;4940673;28;20200;-82
2021/07/08 06:03:21;;;;;;;7.30;6.70;;;17.60;99.90;;;;;;4940704;28;20206;-81
2021/07/08 06:05:48;;;;;;;13.47;9.30;;;17.60;99.90;;;;;;4943656;29;20225;-81
2021/07/08 06:08:15;;;;;;;9.30;8.50;;;17.70;99.90;;;;;;4942107;29;20738;-82
2021/07/08 06:10:42;;;;;;;7.47;6.87;;;17.60;99.90;;;;;;4945027;29;20217;-82
2021/07/08 06:13:10;;;;;;;8.50;7.90;;;17.70;99.90;;;;;;4944049;29;20777;-82
2021/07/08 06:15:38;;;;;;;9.10;8.40;;;17.70;99.90;;;;;;4945236;29;20210;-82
2021/07/08 06:18:05;;;;;;;7.60;7.10;;;17.80;99.90;;;;;;4941370;29;20199;-81
2021/07/08 06:20:32;;;;;;;9.77;9.10;;;17.90;99.90;;;;;;4941546;28;20201;-81
2021/07/08 06:22:59;;;;;;;13.73;12.57;;;18.00;99.90;;;;;;4945080;29;20193;-80
2021/07/08 06:25:30;;;;;;;14.47;13.37;;;18.10;99.90;;;;;;4943502;29;20209;-81
2021/07/08 06:27:58;;;;;;;12.43;11.47;;;18.20;99.90;;;;;;4941166;29;20193;-82
2021/07/08 06:30:26;;;;;;;12.37;11.57;;;18.20;99.90;;;;;;4942923;29;20216;-82
2021/07/08 06:32:53;;;;;;;11.17;10.43;;;18.30;99.90;;;;;;4940217;28;20218;-81
2021/07/08 06:35:20;;;;;;;15.33;14.33;;;18.30;99.90;;;;;;4939398;29;20223;-81
2021/07/08 06:37:47;;;;;;;16.77;15.50;;;18.40;99.90;;;;;;4949367;29;20198;-82
2021/07/08 06:40:17;;;;;;;16.13;15.17;;;18.50;99.90;;;;;;4943801;29;20228;-81
2021/07/08 06:42:44;;;;;;;17.00;15.50;;;18.40;99.90;;;;;;4944221;29;20636;-83
2021/07/08 06:45:13;;;;;;;13.13;12.00;;;18.30;99.90;;;;;;4942095;29;20221;-81
2021/07/08 06:47:44;;;;;;;12.13;11.23;;;18.20;99.90;;;;;;4943907;29;20216;-82
2021/07/08 06:50:12;;;;;;;15.53;14.43;;;18.20;99.90;;;;;;4942892;29;20201;-82
2021/07/08 06:52:38;;;;;;;14.07;13.20;;;18.20;99.90;;;;;;4940360;28;20206;-81
2021/07/08 06:55:06;;;;;;;14.90;13.90;;;18.10;99.90;;;;;;4941905;29;20226;-81
2021/07/08 06:57:34;;;;;;;15.10;14.03;;;18.10;99.90;;;;;;4943021;29;20187;-81
2021/07/08 07:00:01;;;;;;;9.27;7.90;;;18.10;99.90;;;;;;4938403;29;20193;-82
2021/07/08 07:02:28;;;;;;;6.30;5.50;;;18.00;99.90;;;;;;4947094;28;20208;-81
2021/07/08 07:04:56;;;;;;;14.87;13.97;;;18.00;99.90;;;;;;4945264;29;20225;-81
2021/07/08 07:07:23;;;;;;;7.50;5.10;;;18.00;99.90;;;;;;4946945;29;20205;-81
2021/07/08 07:09:49;;;;;;;5.53;5.03;;;18.10;99.90;;;;;;4948300;28;20201;-82
2021/07/08 07:12:16;;;;;;;18.30;17.10;;;18.10;99.90;;;;;;4940823;28;20201;-81
2021/07/08 07:14:43;;;;;;;14.90;14.10;;;18.10;99.90;;;;;;4942932;29;20319;-81
2021/07/08 07:17:10;;;;;;;5.63;5.13;;;18.10;99.90;;;;;;4941433;29;20193;-82
2021/07/08 07:19:37;;;;;;;5.23;4.83;;;18.10;99.90;;;;;;4949477;29;20296;-81
2021/07/08 07:22:05;;;;;;;5.90;5.40;;;18.10;99.90;;;;;;4933791;29;20228;-81
2021/07/08 07:24:32;;;;;;;5.70;5.10;;;18.10;99.90;;;;;;4944453;29;20215;-81
2021/07/08 07:26:59;;;;;;;5.43;5.00;;;18.20;99.90;;;;;;4940650;29;20202;-80
2021/07/08 07:29:26;;;;;;;5.00;4.50;;;18.20;99.90;;;;;;4943207;28;20253;-81
2021/07/08 07:35:16;;;;;;;9.57;8.77;;;18.30;99.90;;;;;;4937620;29;20238;-82
2021/07/08 07:37:49;;;;;;;5.77;5.27;;;18.30;99.90;;;;;;4948346;29;20206;-81
2021/07/08 07:40:17;;;;;;;5.77;5.27;;;18.30;99.90;;;;;;4945900;29;20265;-81
2021/07/08 07:42:44;;;;;;;5.37;4.93;;;18.30;99.90;;;;;;4947730;29;20208;-82
2021/07/08 07:45:12;;;;;;;5.43;4.97;;;18.30;99.90;;;;;;4946166;29;20245;-82
2021/07/08 07:47:40;;;;;;;6.00;5.57;;;18.30;99.90;;;;;;4938924;29;20213;-81
2021/07/08 07:50:08;;;;;;;13.27;12.47;;;18.30;99.90;;;;;;4946252;28;20221;-81
2021/07/08 07:52:35;;;;;;;5.90;5.40;;;18.30;99.90;;;;;;4940667;29;20219;-82
2021/07/08 07:55:04;;;;;;;5.50;5.10;;;18.30;99.90;;;;;;4947997;28;20222;-81
2021/07/08 07:57:32;;;;;;;5.33;4.93;;;18.30;99.90;;;;;;4948438;29;20202;-82
2021/07/08 07:59:59;;;;;;;5.53;5.13;;;18.30;99.90;;;;;;4945951;29;20198;-82
2021/07/08 08:02:26;;;;;;;5.50;5.00;;;18.40;99.90;;;;;;4951953;29;20209;-82
2021/07/08 08:05:08;;;;;;;11.27;10.57;;;18.50;99.90;;;;;;4937115;29;20234;-82
2021/07/08 08:10:20;;;;;;;18.20;17.00;;;19.00;99.90;;;;;;4944667;29;20661;-82
2021/07/08 08:12:47;;;;;;;18.63;17.33;;;19.20;99.90;;;;;;4939177;29;20557;-81
2021/07/08 08:15:15;;;;;;;13.83;12.93;;;19.30;99.90;;;;;;4944511;29;20211;-81
2021/07/08 08:17:43;;;;;;;17.77;16.37;;;19.60;99.90;;;;;;4945458;29;20198;-81
2021/07/08 08:20:11;;;;;;;15.77;14.77;;;19.80;99.90;;;;;;4954352;28;20277;-82
2021/07/08 08:22:40;;;;;;;15.90;14.90;;;20.00;99.90;;;;;;4947550;29;20599;-82
2021/07/08 08:25:08;;;;;;;12.13;11.43;;;20.20;99.90;;;;;;4946650;28;20215;-81
2021/07/08 08:27:40;;;;;;;13.43;12.53;;;20.20;99.90;;;;;;4936870;29;20197;-82
2021/07/08 08:30:14;;;;;;;7.43;6.77;;;20.20;99.90;;;;;;4942108;29;20210;-82
2021/07/08 08:32:41;;;;;;;7.40;6.80;;;20.10;99.90;;;;;;4954609;29;20910;-81
2021/07/08 08:35:09;;;;;;;7.83;7.23;;;20.00;99.90;;;;;;4940401;28;20225;-81
2021/07/08 08:37:36;;;;;;;7.57;6.97;;;20.00;99.90;;;;;;4949546;29;20221;-81
2021/07/08 08:40:05;;;;;;;8.20;7.60;;;20.20;99.90;;;;;;4939797;29;20313;-81
2021/07/08 08:42:33;;;;;;;8.17;7.57;;;20.20;99.90;;;;;;4936426;29;20299;-82
2021/07/08 08:45:07;;;;;;;8.37;7.67;;;20.30;99.90;;;;;;4937462;29;20282;-81
2021/07/08 08:47:34;;;;;;;11.53;9.97;;;20.40;99.90;;;;;;4936329;29;20205;-81
2021/07/08 08:50:01;;;;;;;12.40;11.60;;;20.40;99.90;;;;;;4936463;29;20209;-82
2021/07/08 08:52:29;;;;;;;10.53;9.90;;;20.30;99.90;;;;;;4935994;29;20614;-82
2021/07/08 08:54:56;;;;;;;10.40;9.70;;;20.30;99.90;;;;;;4943859;29;20219;-82
2021/07/08 08:57:23;;;;;;;10.67;9.97;;;20.40;99.90;;;;;;4943171;29;20585;-81
2021/07/08 08:59:50;;;;;;;9.80;9.10;;;20.60;99.90;;;;;;4941920;29;20634;-81
2021/07/08 09:02:19;;;;;;;8.73;8.03;;;20.80;99.90;;;;;;4946949;29;20686;-81
2021/07/08 09:04:48;;;;;;;8.10;7.50;;;21.00;99.90;;;;;;4945903;28;20264;-81
2021/07/08 09:07:25;;;;;;;7.90;7.40;;;21.10;99.90;;;;;;4941272;29;20694;-82
2021/07/08 09:09:54;;;;;;;8.63;8.03;;;21.10;99.90;;;;;;4948275;29;20659;-82
2021/07/08 09:12:24;;;;;;;10.03;9.33;;;21.10;99.90;;;;;;4939072;29;20199;-82
2021/07/08 09:14:51;;;;;;;9.80;9.20;;;21.10;99.90;;;;;;4946494;29;20247;-82
2021/07/08 09:17:22;;;;;;;12.13;11.33;;;21.20;99.90;;;;;;4953487;28;20289;-82
2021/07/08 09:20:06;;;;;;;12.67;11.83;;;21.30;99.90;;;;;;4946485;28;20213;-82
2021/07/08 09:22:34;;;;;;;12.90;12.10;;;21.40;99.90;;;;;;4944519;29;20282;-81
2021/07/08 09:25:01;;;;;;;12.93;12.03;;;21.60;99.90;;;;;;4942503;29;20708;-81
2021/07/08 09:27:29;;;;;;;11.50;10.80;;;21.70;99.90;;;;;;4935184;29;20317;-82
2021/07/08 09:29:56;;;;;;;12.60;11.80;;;21.80;99.90;;;;;;4941400;28;20222;-82
2021/07/08 09:32:27;;;;;;;12.17;11.43;;;21.80;99.90;;;;;;4946174;28;20592;-81
2021/07/08 09:34:57;;;;;;;12.37;11.67;;;21.70;99.90;;;;;;4938220;29;20226;-82
2021/07/08 09:37:25;;;;;;;12.87;11.53;;;21.70;99.90;;;;;;4945958;29;20226;-84
2021/07/08 09:39:54;;;;;;;5.13;4.17;;;21.60;99.90;;;;;;4938864;29;20195;-82
2021/07/08 09:42:34;;;;;;;6.10;5.70;;;21.70;99.90;;;;;;4942998;29;20198;-81
2021/07/08 09:45:06;;;;;;;12.50;11.80;;;21.70;99.90;;;;;;4946436;29;20252;-82
2021/07/08 09:47:37;;;;;;;14.43;13.50;;;21.80;99.90;;;;;;4938765;28;20286;-78
2021/07/08 09:50:05;;;;;;;8.30;7.63;;;21.70;99.90;;;;;;4941362;29;20235;-77
2021/07/08 09:52:33;;;;;;;14.53;13.73;;;21.60;99.90;;;;;;4937043;29;20196;-78
2021/07/08 09:55:13;;;;;;;14.47;13.67;;;21.50;99.90;;;;;;4941234;29;20246;-81
2021/07/08 09:58:17;;;;;;;12.47;11.70;;;21.60;99.90;;;;;;4931690;29;20555;-78
2021/07/08 10:00:44;;;;;;;14.10;13.20;;;21.60;99.90;;;;;;4943703;29;20202;-76
2021/07/08 10:03:13;;;;;;;4.20;3.90;;;21.80;99.90;;;;;;4947395;28;20202;-75
2021/07/08 10:05:40;;;;;;;4.10;3.80;;;21.80;99.90;;;;;;4937353;29;20215;-75
2021/07/08 10:08:09;;;;;;;4.60;4.20;;;21.90;99.90;;;;;;4942663;29;20195;-75
2021/07/08 10:10:36;;;;;;;4.10;3.80;;;21.80;99.90;;;;;;4942870;29;20290;-76
2021/07/08 10:13:03;;;;;;;11.17;4.30;;;21.90;99.90;;;;;;4944081;28;20191;-75
2021/07/08 10:15:34;;;;;;;5.00;4.53;;;21.90;99.90;;;;;;4934502;29;20222;-76
2021/07/08 10:18:04;;;;;;;8.60;8.10;;;21.90;99.90;;;;;;4944381;29;20198;-77
2021/07/08 10:20:32;;;;;;;13.20;12.50;;;21.90;99.90;;;;;;4946439;28;20197;-75
2021/07/08 10:23:00;;;;;;;13.23;12.43;;;21.90;99.90;;;;;;4931992;29;20253;-76
2021/07/08 10:25:27;;;;;;;9.97;9.37;;;22.00;99.90;;;;;;4946641;28;20246;-76
2021/07/08 10:27:55;;;;;;;12.50;11.80;;;22.00;99.90;;;;;;4936279;28;20719;-76
2021/07/08 10:30:22;;;;;;;13.07;12.37;;;21.90;99.90;;;;;;4927204;29;20299;-76
2021/07/08 10:32:55;;;;;;;12.60;11.90;;;21.80;99.90;;;;;;4943549;29;20246;-77
2021/07/08 10:38:36;;;;;;;13.00;12.30;;;21.90;99.90;;;;;;5092924;27;20549;-75
2021/07/08 10:41:42;;;;;;;13.10;12.40;;;21.90;99.90;;;;;;5072854;28;20204;-76
2021/07/08 10:44:50;;;;;;;12.70;11.90;;;21.80;99.90;;;;;;5064711;28;20220;-75
2021/07/08 10:47:35;;;;;;;12.40;11.70;;;21.70;99.90;;;;;;4996857;28;20259;-75
2021/07/08 10:50:03;;;;;;;12.60;11.90;;;21.60;99.90;;;;;;4993506;28;20193;-75
2021/07/08 10:52:45;;;;;;;13.40;12.70;;;21.50;99.90;;;;;;5034216;28;20226;-76
2021/07/08 10:55:32;;;;;;;11.70;11.00;;;21.50;99.90;;;;;;5056390;28;20210;-75
2021/07/08 10:58:04;;;;;;;14.63;13.63;;;21.50;99.90;;;;;;5036219;28;20215;-79
2021/07/08 11:00:47;;;;;;;13.07;12.27;;;21.40;99.90;;;;;;5046986;28;20230;-79
2021/07/08 11:04:03;;;;;;;14.20;13.40;;;21.40;99.90;;;;;;5048336;28;20261;-79
2021/07/08 11:07:28;;;;;;;;;;;;;;;;;;;;;
2021/07/08 11:10:45;;;;;;;12.60;11.90;;;21.40;99.90;;;;;;5040685;28;20206;-80
2021/07/08 11:13:31;;;;;;;13.33;12.53;;;21.30;99.90;;;;;;5060558;28;20796;-82
2021/07/08 11:16:00;;;;;;;12.90;12.20;;;21.40;99.90;;;;;;5061189;28;20229;-82
2021/07/08 11:18:31;;;;;;;12.90;12.10;;;21.50;99.90;;;;;;5050549;28;20210;-82
2021/07/08 11:25:03;;;;;;;13.07;12.27;;;21.70;99.90;;;;;;5046828;28;20210;-82
2021/07/08 11:27:45;;;;;;;12.93;12.23;;;21.70;99.90;;;;;;4990943;28;20206;-81
2021/07/08 11:31:18;;;;;;;13.33;12.53;;;21.70;99.90;;;;;;5006447;28;20219;-81
2021/07/08 11:37:24;;;;;;;12.83;12.13;;;22.00;99.90;;;;;;4985228;28;20236;-81
2021/07/08 11:44:04;;;;;;;13.17;12.40;;;21.80;99.90;;;;;;4986097;28;20207;-79
2021/07/08 11:47:02;;;;;;;12.33;11.63;;;21.80;99.90;;;;;;5051553;28;20224;-80
2021/07/08 11:49:48;;;;;;;12.77;12.07;;;21.80;99.90;;;;;;5044747;28;20257;-79
2021/07/08 11:52:29;;;;;;;12.37;11.67;;;21.80;99.90;;;;;;5034822;28;20565;-80
2021/07/08 11:55:05;;;;;;;12.63;11.83;;;21.80;99.90;;;;;;5024322;28;20208;-80
2021/07/08 11:58:22;;;;;;;;;;;;;;;;;;;;;
2021/07/08 12:01:19;;;;;;;12.73;12.03;;;21.90;99.90;;;;;;5033523;28;20545;-80
2021/07/08 12:03:54;;;;;;;12.50;11.80;;;22.00;99.90;;;;;;5032412;28;20224;-79
2021/07/08 12:06:44;;;;;;;12.73;11.93;;;22.10;99.90;;;;;;5031916;28;20288;-79
2021/07/08 12:09:36;;;;;;;;;;;;;;;;;;;;;
2021/07/08 12:15:14;;;;;;;12.50;11.77;;;22.20;99.90;;;;;;5038324;28;20219;-80
2021/07/08 12:17:42;;;;;;;12.43;11.73;;;22.40;99.90;;;;;;5044227;28;20215;-79
2021/07/08 12:20:22;;;;;;;12.10;11.40;;;22.30;99.90;;;;;;5069975;28;20206;-79
2021/07/08 12:23:03;;;;;;;13.70;12.70;;;22.40;99.90;;;;;;5035481;28;20196;-79
2021/07/08 12:25:33;;;;;;;13.07;12.17;;;22.30;99.90;;;;;;5041522;28;20592;-80
2021/07/08 12:28:02;;;;;;;12.80;12.10;;;22.30;99.90;;;;;;5036666;28;20190;-80
2021/07/08 12:30:31;;;;;;;12.70;12.00;;;22.60;99.90;;;;;;5066531;28;20727;-80
2021/07/08 12:33:21;;;;;;;13.20;12.50;;;22.80;99.90;;;;;;5037084;28;20322;-80
2021/07/08 12:36:33;;;;;;;13.13;12.40;;;23.00;99.90;;;;;;5045572;28;20240;-79
2021/07/08 12:39:17;;;;;;;12.00;11.30;;;23.00;99.90;;;;;;5033576;28;20187;-79
2021/07/08 12:41:52;;;;;;;11.40;10.80;;;22.80;99.90;;;;;;5037176;28;20188;-79
2021/07/08 12:44:21;;;;;;;11.40;10.63;;;22.90;99.90;;;;;;5039840;28;20195;-79
2021/07/08 12:47:07;;;;;;;11.87;11.07;;;22.90;99.90;;;;;;5043810;28;20215;-80
2021/07/08 12:49:56;;;;;;;11.80;11.10;;;23.00;99.90;;;;;;5050560;28;20215;-79
2021/07/08 12:52:26;;;;;;;11.83;11.00;;;23.00;99.90;;;;;;5015889;28;20198;-79
2021/07/08 12:55:00;;;;;;;11.60;10.90;;;23.00;99.90;;;;;;5033163;28;20216;-80
2021/07/08 12:57:27;;;;;;;11.33;10.70;;;23.00;99.90;;;;;;5036892;28;20216;-81
2021/07/08 12:59:56;;;;;;;11.33;10.63;;;22.90;99.90;;;;;;5080797;28;20192;-79
2021/07/08 13:02:23;;;;;;;11.40;10.70;;;23.00;99.90;;;;;;5031992;28;20196;-78
2021/07/08 13:05:01;;;;;;;11.10;10.40;;;23.10;99.90;;;;;;5026069;28;20774;-79
2021/07/08 13:07:28;;;;;;;11.00;10.40;;;23.20;99.90;;;;;;5040061;28;20203;-82
2021/07/08 13:09:57;;;;;;;11.40;10.63;;;23.20;99.90;;;;;;5036522;28;20196;-83
2021/07/08 13:12:26;;;;;;;4.93;3.60;;;23.40;99.90;;;;;;5045086;28;20286;-83
2021/07/08 13:14:55;;;;;;;3.40;3.20;;;23.40;99.90;;;;;;5041932;28;20284;-82
2021/07/08 13:17:27;;;;;;;4.33;3.60;;;23.40;99.90;;;;;;5038085;28;20212;-82